createdAt,value
2023-05-01T00:00:55.125Z,94854.00
2023-05-01T00:01:55.148Z,94856.00
2023-05-01T00:02:55.293Z,94852.00
2023-05-01T00:03:55.327Z,94852.00
2023-05-01T00:04:55.370Z,94852.00
2023-05-01T00:05:55.396Z,94850.00
2023-05-01T00:06:55.492Z,94846.00
2023-05-01T00:07:55.528Z,94848.00
2023-05-01T00:08:55.601Z,94850.00
2023-05-01T00:09:55.837Z,94848.00
2023-05-01T00:10:55.724Z,94848.00
2023-05-01T00:11:55.793Z,94850.00
2023-05-01T00:12:55.856Z,94846.00
2023-05-01T00:13:55.909Z,94848.00
2023-05-01T00:14:56.289Z,94846.00
2023-05-01T00:15:56.108Z,94846.00
2023-05-01T00:16:56.288Z,94844.00
2023-05-01T00:17:56.193Z,94842.00
2023-05-01T00:18:56.216Z,94842.00
2023-05-01T00:19:56.548Z,94844.00
2023-05-01T00:20:56.333Z,94844.00
2023-05-01T00:21:56.425Z,94842.00
2023-05-01T00:22:56.478Z,94846.00
2023-05-01T00:23:56.536Z,94846.00
2023-05-01T00:24:56.837Z,94844.00
2023-05-01T00:25:56.722Z,94846.00
2023-05-01T00:26:56.721Z,94846.00
2023-05-01T00:27:56.820Z,94844.00
2023-05-01T00:28:56.856Z,94842.00
2023-05-01T00:29:57.217Z,94840.00
2023-05-01T00:30:56.978Z,94836.00
2023-05-01T00:31:57.109Z,94834.00
2023-05-01T00:32:57.162Z,94832.00
2023-05-01T00:33:57.176Z,94834.00
2023-05-01T00:34:57.258Z,94834.00
2023-05-01T00:35:57.311Z,94832.00
2023-05-01T00:36:57.345Z,94832.00
2023-05-01T00:37:57.458Z,94832.00
2023-05-01T00:38:57.476Z,94830.00
2023-05-01T00:39:58.209Z,94832.00
2023-05-01T00:40:57.640Z,94834.00
2023-05-01T00:41:57.683Z,94838.00
2023-05-01T00:42:57.742Z,94838.00
2023-05-01T00:43:57.822Z,94838.00
2023-05-01T00:44:58.303Z,94836.00
2023-05-01T00:45:57.957Z,94832.00
2023-05-01T00:46:58.003Z,94832.00
2023-05-01T00:47:58.210Z,94828.00
2023-05-01T00:48:58.098Z,94830.00
2023-05-01T00:49:58.322Z,94828.00
2023-05-01T00:50:58.280Z,94832.00
2023-05-01T00:51:58.300Z,94827.00
2023-05-01T00:52:58.365Z,94825.00
2023-05-01T00:53:58.405Z,94828.00
2023-05-01T00:54:58.483Z,94827.00
2023-05-01T00:55:58.566Z,94825.00
2023-05-01T00:56:58.595Z,94825.00
2023-05-01T00:57:58.678Z,94827.00
2023-05-01T00:58:58.772Z,94825.00
2023-05-01T00:59:58.900Z,94825.00
2023-05-01T01:00:58.958Z,94825.00
2023-05-01T01:01:58.934Z,94821.00
2023-05-01T01:02:59.031Z,94821.00
2023-05-01T01:03:59.080Z,94819.00
2023-05-01T01:04:59.243Z,94817.00
2023-05-01T01:05:59.248Z,94815.00
2023-05-01T01:06:59.273Z,94817.00
2023-05-01T01:07:59.338Z,94817.00
2023-05-01T01:08:59.408Z,94817.00
2023-05-01T01:09:59.444Z,94817.00
2023-05-01T01:10:59.535Z,94819.00
2023-05-01T01:11:59.576Z,94819.00
2023-05-01T01:12:59.658Z,94819.00
2023-05-01T01:13:59.680Z,94817.00
2023-05-01T01:14:59.763Z,94815.00
2023-05-01T01:15:59.826Z,94815.00
2023-05-01T01:16:59.947Z,94815.00
2023-05-01T01:17:59.997Z,94813.00
2023-05-01T01:19:00.015Z,94815.00
2023-05-01T01:20:00.108Z,94815.00
2023-05-01T01:21:00.331Z,94813.00
2023-05-01T01:22:00.208Z,94815.00
2023-05-01T01:23:00.266Z,94817.00
2023-05-01T01:24:00.333Z,94815.00
2023-05-01T01:25:00.370Z,94815.00
2023-05-01T01:26:00.456Z,94813.00
2023-05-01T01:27:00.482Z,94813.00
2023-05-01T01:28:00.571Z,94813.00
2023-05-01T01:29:00.631Z,94813.00
2023-05-01T01:30:00.728Z,94815.00
2023-05-01T01:31:00.851Z,94815.00
2023-05-01T01:32:00.834Z,94817.00
2023-05-01T01:33:00.950Z,94815.00
2023-05-01T01:34:00.980Z,94817.00
2023-05-01T01:35:01.030Z,94817.00
2023-05-01T01:36:01.088Z,94815.00
2023-05-01T01:37:01.171Z,94813.00
2023-05-01T01:38:01.235Z,94809.00
2023-05-01T01:39:01.328Z,94809.00
2023-05-01T01:40:01.392Z,94809.00
2023-05-01T01:41:01.403Z,94809.00
2023-05-01T01:42:01.465Z,94809.00
2023-05-01T01:43:01.526Z,94811.00
2023-05-01T01:44:01.597Z,94807.00
2023-05-01T01:45:01.686Z,94807.00
2023-05-01T01:46:01.795Z,94807.00
2023-05-01T01:47:01.846Z,94805.00
2023-05-01T01:48:01.968Z,94805.00
2023-05-01T01:49:01.912Z,94801.00
2023-05-01T01:50:02.013Z,94801.00
2023-05-01T01:51:02.029Z,94801.00
2023-05-01T01:52:02.117Z,94801.00
2023-05-01T01:53:02.184Z,94801.00
2023-05-01T01:54:02.202Z,94801.00
2023-05-01T01:55:02.279Z,94799.00
2023-05-01T01:56:03.851Z,94801.00
2023-05-01T01:57:02.389Z,94801.00
2023-05-01T01:58:02.518Z,94801.00
2023-05-01T01:59:02.554Z,94801.00
2023-05-01T02:00:02.607Z,94795.00
2023-05-01T02:01:02.644Z,94797.00
2023-05-01T02:02:02.789Z,94799.00
2023-05-01T02:03:02.826Z,94799.00
2023-05-01T02:04:02.909Z,94795.00
2023-05-01T02:05:02.907Z,94801.00
2023-05-01T02:06:03.093Z,94795.00
2023-05-01T02:07:03.001Z,94797.00
2023-05-01T02:08:03.085Z,94791.00
2023-05-01T02:09:03.134Z,94791.00
2023-05-01T02:10:03.258Z,94791.00
2023-05-01T02:11:03.311Z,94793.00
2023-05-01T02:12:03.326Z,94791.00
2023-05-01T02:13:03.396Z,94793.00
2023-05-01T02:14:03.472Z,94791.00
2023-05-01T02:15:03.480Z,94789.00
2023-05-01T02:16:03.586Z,94789.00
2023-05-01T02:17:03.585Z,94789.00
2023-05-01T02:18:03.691Z,94793.00
2023-05-01T02:19:03.691Z,94791.00
2023-05-01T02:20:03.829Z,94791.00
2023-05-01T02:21:03.803Z,94791.00
2023-05-01T02:22:03.858Z,94787.00
2023-05-01T02:23:03.919Z,94785.00
2023-05-01T02:24:03.964Z,94781.00
2023-05-01T02:25:04.022Z,94783.00
2023-05-01T02:26:04.168Z,94783.00
2023-05-01T02:27:04.171Z,94785.00
2023-05-01T02:28:04.240Z,94783.00
2023-05-01T02:29:04.268Z,94783.00
2023-05-01T02:30:04.367Z,94778.00
2023-05-01T02:31:04.935Z,94778.00
2023-05-01T02:32:04.574Z,94781.00
2023-05-01T02:33:04.559Z,94776.00
2023-05-01T02:34:04.620Z,94778.00
2023-05-01T02:35:05.353Z,94778.00
2023-05-01T02:36:04.759Z,94778.00
2023-05-01T02:37:04.777Z,94776.00
2023-05-01T02:38:04.853Z,94778.00
2023-05-01T02:39:04.932Z,94774.00
2023-05-01T02:40:05.008Z,94774.00
2023-05-01T02:41:05.360Z,94772.00
2023-05-01T02:42:05.147Z,94772.00
2023-05-01T02:43:05.198Z,94772.00
2023-05-01T02:44:05.260Z,94774.00
2023-05-01T02:45:05.312Z,94774.00
2023-05-01T02:46:05.447Z,94772.00
2023-05-01T02:47:05.564Z,94772.00
2023-05-01T02:48:05.608Z,94772.00
2023-05-01T02:49:05.583Z,94770.00
2023-05-01T02:50:06.375Z,94768.00
2023-05-01T02:51:05.872Z,94768.00
2023-05-01T02:52:05.696Z,94766.00
2023-05-01T02:53:05.743Z,94768.00
2023-05-01T02:54:05.775Z,94764.00
2023-05-01T02:55:05.841Z,94762.00
2023-05-01T02:56:05.862Z,94762.00
2023-05-01T02:57:05.942Z,94764.00
2023-05-01T02:58:05.981Z,94758.00
2023-05-01T02:59:06.051Z,94762.00
2023-05-01T03:00:06.120Z,94762.00
2023-05-01T03:01:06.191Z,94760.00
2023-05-01T03:02:06.262Z,94764.00
2023-05-01T03:03:06.409Z,94756.00
2023-05-01T03:04:06.367Z,94762.00
2023-05-01T03:05:06.445Z,94760.00
2023-05-01T03:06:06.522Z,94760.00
2023-05-01T03:07:06.534Z,94760.00
2023-05-01T03:08:06.573Z,94760.00
2023-05-01T03:09:06.606Z,94760.00
2023-05-01T03:10:06.692Z,94756.00
2023-05-01T03:11:06.883Z,94756.00
2023-05-01T03:12:06.796Z,94756.00
2023-05-01T03:13:06.825Z,94758.00
2023-05-01T03:14:06.905Z,94758.00
2023-05-01T03:15:06.957Z,94758.00
2023-05-01T03:16:07.048Z,94754.00
2023-05-01T03:17:07.067Z,94754.00
2023-05-01T03:18:07.201Z,94754.00
2023-05-01T03:19:07.171Z,94754.00
2023-05-01T03:20:07.266Z,94750.00
2023-05-01T03:21:07.306Z,94750.00
2023-05-01T03:22:07.378Z,94750.00
2023-05-01T03:23:07.491Z,94752.00
2023-05-01T03:24:07.494Z,94750.00
2023-05-01T03:25:07.559Z,94750.00
2023-05-01T03:26:07.917Z,94748.00
2023-05-01T03:27:07.624Z,94748.00
2023-05-01T03:28:07.665Z,94750.00
2023-05-01T03:29:07.726Z,94750.00
2023-05-01T03:30:07.798Z,94746.00
2023-05-01T03:31:07.871Z,94750.00
2023-05-01T03:32:07.994Z,94748.00
2023-05-01T03:33:08.118Z,94744.00
2023-05-01T03:34:08.078Z,94742.00
2023-05-01T03:35:08.226Z,94742.00
2023-05-01T03:36:08.375Z,94742.00
2023-05-01T03:37:08.243Z,94742.00
2023-05-01T03:38:08.313Z,94742.00
2023-05-01T03:39:08.345Z,94740.00
2023-05-01T03:40:08.403Z,94740.00
2023-05-01T03:41:08.448Z,94740.00
2023-05-01T03:42:08.506Z,94736.00
2023-05-01T03:43:08.584Z,94736.00
2023-05-01T03:44:08.612Z,94734.00
2023-05-01T03:45:08.711Z,94736.00
2023-05-01T03:46:08.781Z,94736.00
2023-05-01T03:47:08.846Z,94736.00
2023-05-01T03:48:08.975Z,94738.00
2023-05-01T03:49:08.998Z,94736.00
2023-05-01T03:50:09.002Z,94734.00
2023-05-01T03:51:09.078Z,94731.00
2023-05-01T03:52:09.127Z,94731.00
2023-05-01T03:53:09.188Z,94731.00
2023-05-01T03:54:09.295Z,94733.00
2023-05-01T03:55:09.391Z,94731.00
2023-05-01T03:56:09.418Z,94729.00
2023-05-01T03:57:09.443Z,94729.00
2023-05-01T03:58:09.513Z,94727.00
2023-05-01T03:59:09.536Z,94727.00
2023-05-01T04:00:09.584Z,94729.00
2023-05-01T04:01:09.624Z,94729.00
2023-05-01T04:02:09.693Z,94729.00
2023-05-01T04:03:09.862Z,94727.00
2023-05-01T04:04:09.906Z,94727.00
2023-05-01T04:05:09.783Z,94731.00
2023-05-01T04:06:09.900Z,94727.00
2023-05-01T04:07:09.898Z,94727.00
2023-05-01T04:08:09.906Z,94727.00
2023-05-01T04:09:09.977Z,94725.00
2023-05-01T04:10:10.039Z,94725.00
2023-05-01T04:11:10.089Z,94723.00
2023-05-01T04:12:10.115Z,94727.00
2023-05-01T04:13:10.153Z,94725.00
2023-05-01T04:14:10.242Z,94725.00
2023-05-01T04:15:10.279Z,94723.00
2023-05-01T04:16:10.512Z,94723.00
2023-05-01T04:17:10.365Z,94723.00
2023-05-01T04:18:10.463Z,94723.00
2023-05-01T04:19:10.470Z,94725.00
2023-05-01T04:20:10.531Z,94727.00
2023-05-01T04:21:10.887Z,94727.00
2023-05-01T04:22:10.608Z,94727.00
2023-05-01T04:23:10.673Z,94723.00
2023-05-01T04:24:10.700Z,94725.00
2023-05-01T04:25:10.812Z,94725.00
2023-05-01T04:26:10.854Z,94723.00
2023-05-01T04:27:10.904Z,94725.00
2023-05-01T04:28:10.944Z,94719.00
2023-05-01T04:29:11.035Z,94723.00
2023-05-01T04:30:11.076Z,94723.00
2023-05-01T04:31:11.430Z,94725.00
2023-05-01T04:32:11.194Z,94721.00
2023-05-01T04:33:11.229Z,94721.00
2023-05-01T04:34:11.271Z,94723.00
2023-05-01T04:35:11.298Z,94721.00
2023-05-01T04:36:11.383Z,94723.00
2023-05-01T04:37:11.446Z,94721.00
2023-05-01T04:38:11.463Z,94719.00
2023-05-01T04:39:11.534Z,94719.00
2023-05-01T04:40:11.866Z,94715.00
2023-05-01T04:41:11.657Z,94717.00
2023-05-01T04:42:11.703Z,94719.00
2023-05-01T04:43:11.798Z,94721.00
2023-05-01T04:44:33.640Z,94723.00
2023-05-01T04:45:33.622Z,94719.00
2023-05-01T04:46:33.661Z,94717.00
2023-05-01T04:47:33.667Z,94723.00
2023-05-01T04:48:33.637Z,94721.00
2023-05-01T04:49:33.606Z,94721.00
2023-05-01T04:50:33.666Z,94723.00
2023-05-01T04:51:33.648Z,94721.00
2023-05-01T04:52:33.607Z,94719.00
2023-05-01T04:53:33.624Z,94721.00
2023-05-01T04:54:33.601Z,94723.00
2023-05-01T04:55:33.592Z,94725.00
2023-05-01T04:56:33.594Z,94725.00
2023-05-01T04:57:33.559Z,94727.00
2023-05-01T04:58:33.591Z,94725.00
2023-05-01T04:59:33.551Z,94725.00
2023-05-01T05:00:33.557Z,94727.00
2023-05-01T05:01:33.866Z,94727.00
2023-05-01T05:02:33.675Z,94731.00
2023-05-01T05:03:33.683Z,94733.00
2023-05-01T05:04:33.646Z,94731.00
2023-05-01T05:05:33.703Z,94731.00
2023-05-01T05:06:33.751Z,94731.00
2023-05-01T05:07:33.750Z,94729.00
2023-05-01T05:08:33.740Z,94729.00
2023-05-01T05:09:33.838Z,94731.00
2023-05-01T05:10:33.834Z,94729.00
2023-05-01T05:11:33.911Z,94733.00
2023-05-01T05:12:33.880Z,94734.00
2023-05-01T05:13:33.916Z,94733.00
2023-05-01T05:14:33.965Z,94734.00
2023-05-01T05:15:33.986Z,94733.00
2023-05-01T05:16:34.391Z,94734.00
2023-05-01T05:17:34.171Z,94733.00
2023-05-01T05:18:34.852Z,94731.00
2023-05-01T05:19:34.262Z,94731.00
2023-05-01T05:20:34.864Z,94729.00
2023-05-01T05:21:34.365Z,94729.00
2023-05-01T05:22:34.397Z,94727.00
2023-05-01T05:23:34.421Z,94727.00
2023-05-01T05:24:34.453Z,94729.00
2023-05-01T05:25:34.518Z,94725.00
2023-05-01T05:26:34.525Z,94725.00
2023-05-01T05:27:34.524Z,94725.00
2023-05-01T05:28:34.598Z,94727.00
2023-05-01T05:29:34.691Z,94727.00
2023-05-01T05:30:34.656Z,94727.00
2023-05-01T05:31:34.684Z,94727.00
2023-05-01T05:32:34.752Z,94729.00
2023-05-01T05:33:34.745Z,94729.00
2023-05-01T05:34:34.801Z,94729.00
2023-05-01T05:35:34.834Z,94727.00
2023-05-01T05:36:35.361Z,94729.00
2023-05-01T05:37:34.916Z,94727.00
2023-05-01T05:38:34.997Z,94729.00
2023-05-01T05:39:35.096Z,94731.00
2023-05-01T05:40:35.111Z,94733.00
2023-05-01T05:41:35.347Z,94733.00
2023-05-01T05:42:35.187Z,94734.00
2023-05-01T05:43:35.249Z,94734.00
2023-05-01T05:44:35.322Z,94733.00
2023-05-01T05:45:35.564Z,94734.00
2023-05-01T05:46:35.430Z,94734.00
2023-05-01T05:47:35.431Z,94734.00
2023-05-01T05:48:35.465Z,94734.00
2023-05-01T05:49:35.448Z,94734.00
2023-05-01T05:50:35.515Z,94731.00
2023-05-01T05:51:35.496Z,94731.00
2023-05-01T05:52:35.495Z,94733.00
2023-05-01T05:53:35.517Z,94733.00
2023-05-01T05:54:35.542Z,94733.00
2023-05-01T05:55:35.541Z,94733.00
2023-05-01T05:56:35.877Z,94731.00
2023-05-01T05:57:35.607Z,94731.00
2023-05-01T05:58:35.633Z,94731.00
2023-05-01T05:59:35.637Z,94733.00
2023-05-01T06:00:35.706Z,94733.00
2023-05-01T06:01:35.692Z,94733.00
2023-05-01T06:02:35.857Z,94733.00
2023-05-01T06:03:35.951Z,94733.00
2023-05-01T06:04:35.814Z,94734.00
2023-05-01T06:05:35.920Z,94733.00
2023-05-01T06:06:35.993Z,94733.00
2023-05-01T06:07:36.002Z,94733.00
2023-05-01T06:08:35.993Z,94731.00
2023-05-01T06:09:36.041Z,94729.00
2023-05-01T06:10:36.074Z,94727.00
2023-05-01T06:11:36.141Z,94727.00
2023-05-01T06:12:38.615Z,94727.00
2023-05-01T06:13:36.137Z,94729.00
2023-05-01T06:14:36.148Z,94729.00
2023-05-01T06:15:36.117Z,94729.00
2023-05-01T06:16:36.229Z,94727.00
2023-05-01T06:17:36.458Z,94725.00
2023-05-01T06:18:36.115Z,94725.00
2023-05-01T06:19:36.098Z,94725.00
2023-05-01T06:20:36.108Z,94723.00
2023-05-01T06:21:36.123Z,94725.00
2023-05-01T06:22:36.106Z,94721.00
2023-05-01T06:23:36.067Z,94721.00
2023-05-01T06:24:36.080Z,94721.00
2023-05-01T06:25:36.065Z,94721.00
2023-05-01T06:26:36.075Z,94719.00
2023-05-01T06:27:36.061Z,94723.00
2023-05-01T06:28:36.048Z,94721.00
2023-05-01T06:29:36.043Z,94725.00
2023-05-01T06:30:36.060Z,94723.00
2023-05-01T06:31:36.119Z,94725.00
2023-05-01T06:32:36.066Z,94725.00
2023-05-01T06:33:36.079Z,94723.00
2023-05-01T06:34:36.073Z,94719.00
2023-05-01T06:35:36.101Z,94717.00
2023-05-01T06:36:36.155Z,94717.00
2023-05-01T06:37:36.194Z,94713.00
2023-05-01T06:38:36.194Z,94715.00
2023-05-01T06:39:36.209Z,94715.00
2023-05-01T06:40:36.252Z,94715.00
2023-05-01T06:41:36.250Z,94715.00
2023-05-01T06:42:36.297Z,94717.00
2023-05-01T06:43:36.310Z,94717.00
2023-05-01T06:44:36.298Z,94715.00
2023-05-01T06:45:36.301Z,94717.00
2023-05-01T06:46:36.408Z,94717.00
2023-05-01T06:47:36.464Z,94719.00
2023-05-01T06:48:36.355Z,94719.00
2023-05-01T06:49:36.332Z,94721.00
2023-05-01T06:50:36.356Z,94721.00
2023-05-01T06:51:36.401Z,94721.00
2023-05-01T06:52:36.389Z,94723.00
2023-05-01T06:53:36.382Z,94719.00
2023-05-01T06:54:36.411Z,94723.00
2023-05-01T06:55:36.509Z,94723.00
2023-05-01T06:56:36.380Z,94723.00
2023-05-01T06:57:36.435Z,94725.00
2023-05-01T06:58:36.449Z,94723.00
2023-05-01T06:59:36.463Z,94723.00
2023-05-01T07:00:36.478Z,94723.00
2023-05-01T07:01:36.586Z,94723.00
2023-05-01T07:02:36.696Z,94725.00
2023-05-01T07:03:36.653Z,94721.00
2023-05-01T07:04:36.615Z,94721.00
2023-05-01T07:05:36.644Z,94721.00
2023-05-01T07:06:36.684Z,94721.00
2023-05-01T07:07:38.929Z,94721.00
2023-05-01T07:08:37.686Z,94721.00
2023-05-01T07:09:36.703Z,94721.00
2023-05-01T07:10:36.653Z,94719.00
2023-05-01T07:11:36.667Z,94719.00
2023-05-01T07:12:36.685Z,94719.00
2023-05-01T07:13:36.644Z,94717.00
2023-05-01T07:14:36.661Z,94719.00
2023-05-01T07:15:36.668Z,94723.00
2023-05-01T07:16:36.689Z,94719.00
2023-05-01T07:17:36.652Z,94721.00
2023-05-01T07:18:36.624Z,94719.00
2023-05-01T07:19:36.635Z,94719.00
2023-05-01T07:20:36.643Z,94719.00
2023-05-01T07:21:36.654Z,94717.00
2023-05-01T07:22:36.902Z,94721.00
2023-05-01T07:23:36.699Z,94725.00
2023-05-01T07:24:36.688Z,94723.00
2023-05-01T07:25:36.738Z,94723.00
2023-05-01T07:26:36.755Z,94723.00
2023-05-01T07:27:36.884Z,94723.00
2023-05-01T07:28:36.809Z,94721.00
2023-05-01T07:29:36.845Z,94723.00
2023-05-01T07:30:36.875Z,94721.00
2023-05-01T07:31:36.916Z,94719.00
2023-05-01T07:32:37.406Z,94717.00
2023-05-01T07:33:36.965Z,94715.00
2023-05-01T07:34:37.007Z,94715.00
2023-05-01T07:35:37.048Z,94713.00
2023-05-01T07:36:37.050Z,94713.00
2023-05-01T07:37:37.131Z,94715.00
2023-05-01T07:38:37.139Z,94713.00
2023-05-01T07:39:37.155Z,94715.00
2023-05-01T07:40:37.201Z,94713.00
2023-05-01T07:41:37.204Z,94713.00
2023-05-01T07:42:37.273Z,94713.00
2023-05-01T07:43:37.244Z,94713.00
2023-05-01T07:44:37.279Z,94711.00
2023-05-01T07:45:37.296Z,94707.00
2023-05-01T07:46:37.639Z,94711.00
2023-05-01T07:47:37.353Z,94707.00
2023-05-01T07:48:38.925Z,94705.00
2023-05-01T07:49:37.417Z,94707.00
2023-05-01T07:50:37.474Z,94705.00
2023-05-01T07:51:37.498Z,94709.00
2023-05-01T07:52:37.890Z,94713.00
2023-05-01T07:53:37.568Z,94715.00
2023-05-01T07:54:37.547Z,94711.00
2023-05-01T07:55:37.619Z,94711.00
2023-05-01T07:56:37.670Z,94711.00
2023-05-01T07:57:37.878Z,94711.00
2023-05-01T07:58:37.728Z,94711.00
2023-05-01T07:59:37.732Z,94707.00
2023-05-01T08:00:37.805Z,94709.00
2023-05-01T08:01:37.847Z,94705.00
2023-05-01T08:02:37.951Z,94707.00
2023-05-01T08:03:38.078Z,94709.00
2023-05-01T08:04:37.917Z,94707.00
2023-05-01T08:05:37.943Z,94705.00
2023-05-01T08:06:38.046Z,94705.00
2023-05-01T08:07:38.023Z,94705.00
2023-05-01T08:08:38.069Z,94701.00
2023-05-01T08:09:38.107Z,94701.00
2023-05-01T08:10:38.132Z,94703.00
2023-05-01T08:11:38.198Z,94703.00
2023-05-01T08:12:38.441Z,94703.00
2023-05-01T08:13:38.331Z,94703.00
2023-05-01T08:14:38.372Z,94703.00
2023-05-01T08:15:38.437Z,94701.00
2023-05-01T08:16:38.633Z,94701.00
2023-05-01T08:17:38.509Z,94703.00
2023-05-01T08:18:38.550Z,94703.00
2023-05-01T08:19:38.616Z,94707.00
2023-05-01T08:20:38.678Z,94707.00
2023-05-01T08:21:38.714Z,94703.00
2023-05-01T08:22:38.752Z,94703.00
2023-05-01T08:23:38.793Z,94705.00
2023-05-01T08:24:38.855Z,94705.00
2023-05-01T08:25:38.900Z,94703.00
2023-05-01T08:26:38.947Z,94701.00
2023-05-01T08:27:39.003Z,94701.00
2023-05-01T08:28:39.049Z,94703.00
2023-05-01T08:29:39.087Z,94701.00
2023-05-01T08:30:39.154Z,94703.00
2023-05-01T08:31:39.215Z,94703.00
2023-05-01T08:32:39.235Z,94701.00
2023-05-01T08:33:39.265Z,94701.00
2023-05-01T08:34:39.323Z,94701.00
2023-05-01T08:35:39.366Z,94699.00
2023-05-01T08:36:39.449Z,94699.00
2023-05-01T08:37:39.434Z,94703.00
2023-05-01T08:38:39.487Z,94701.00
2023-05-01T08:39:39.539Z,94697.00
2023-05-01T08:40:39.584Z,94697.00
2023-05-01T08:41:39.631Z,94695.00
2023-05-01T08:42:39.928Z,94693.00
2023-05-01T08:43:39.789Z,94693.00
2023-05-01T08:44:39.880Z,94691.00
2023-05-01T08:45:39.918Z,94689.00
2023-05-01T08:46:40.075Z,94689.00
2023-05-01T08:47:40.226Z,94691.00
2023-05-01T08:48:40.110Z,94689.00
2023-05-01T08:49:40.171Z,94689.00
2023-05-01T08:50:40.207Z,94687.00
2023-05-01T08:51:40.294Z,94687.00
2023-05-01T08:52:40.374Z,94686.00
2023-05-01T08:53:40.386Z,94687.00
2023-05-01T08:54:40.490Z,94684.00
2023-05-01T08:55:40.564Z,94684.00
2023-05-01T08:56:40.558Z,94684.00
2023-05-01T08:57:40.671Z,94684.00
2023-05-01T08:58:40.707Z,94684.00
2023-05-01T08:59:40.777Z,94682.00
2023-05-01T09:00:40.832Z,94684.00
2023-05-01T09:01:40.905Z,94686.00
2023-05-01T09:02:40.980Z,94686.00
2023-05-01T09:03:41.087Z,94684.00
2023-05-01T09:04:41.077Z,94686.00
2023-05-01T09:05:41.145Z,94686.00
2023-05-01T09:06:41.255Z,94682.00
2023-05-01T09:07:41.318Z,94682.00
2023-05-01T09:08:41.341Z,94680.00
2023-05-01T09:09:41.419Z,94678.00
2023-05-01T09:10:41.463Z,94678.00
2023-05-01T09:11:41.487Z,94678.00
2023-05-01T09:12:41.562Z,94678.00
2023-05-01T09:13:41.630Z,94678.00
2023-05-01T09:14:41.703Z,94680.00
2023-05-01T09:15:41.712Z,94678.00
2023-05-01T09:16:41.822Z,94678.00
2023-05-01T09:17:41.864Z,94676.00
2023-05-01T09:18:41.914Z,94672.00
2023-05-01T09:19:41.995Z,94676.00
2023-05-01T09:20:42.053Z,94674.00
2023-05-01T09:21:42.112Z,94672.00
2023-05-01T09:22:42.219Z,94674.00
2023-05-01T09:23:42.237Z,94674.00
2023-05-01T09:24:42.303Z,94670.00
2023-05-01T09:25:42.350Z,94668.00
2023-05-01T09:26:42.399Z,94668.00
2023-05-01T09:27:42.913Z,94670.00
2023-05-01T09:28:42.521Z,94670.00
2023-05-01T09:29:42.584Z,94668.00
2023-05-01T09:30:42.633Z,94668.00
2023-05-01T09:31:42.778Z,94664.00
2023-05-01T09:32:43.071Z,94664.00
2023-05-01T09:33:42.876Z,94654.00
2023-05-01T09:34:42.947Z,94654.00
2023-05-01T09:35:42.974Z,94648.00
2023-05-01T09:36:43.032Z,94650.00
2023-05-01T09:37:43.123Z,94648.00
2023-05-01T09:38:43.166Z,94644.00
2023-05-01T09:39:43.239Z,94646.00
2023-05-01T09:40:43.325Z,94644.00
2023-05-01T09:41:43.343Z,94642.00
2023-05-01T09:42:43.437Z,94641.00
2023-05-01T09:43:43.495Z,94641.00
2023-05-01T09:44:43.534Z,94641.00
2023-05-01T09:45:43.656Z,94642.00
2023-05-01T09:46:43.681Z,94641.00
2023-05-01T09:47:43.790Z,94639.00
2023-05-01T09:48:43.795Z,94641.00
2023-05-01T09:49:43.874Z,94637.00
2023-05-01T09:50:43.959Z,94637.00
2023-05-01T09:51:44.020Z,94637.00
2023-05-01T09:52:44.444Z,94635.00
2023-05-01T09:53:44.130Z,94637.00
2023-05-01T09:54:44.186Z,94635.00
2023-05-01T09:55:44.221Z,94635.00
2023-05-01T09:56:44.294Z,94631.00
2023-05-01T09:57:44.346Z,94631.00
2023-05-01T09:58:44.410Z,94631.00
2023-05-01T09:59:44.477Z,94631.00
2023-05-01T10:00:44.524Z,94629.00
2023-05-01T10:01:44.627Z,94627.00
2023-05-01T10:02:44.733Z,94629.00
2023-05-01T10:03:44.806Z,94629.00
2023-05-01T10:04:44.786Z,94621.00
2023-05-01T10:05:44.840Z,94625.00
2023-05-01T10:06:44.952Z,94623.00
2023-05-01T10:07:44.939Z,94623.00
2023-05-01T10:08:45.026Z,94621.00
2023-05-01T10:09:45.026Z,94621.00
2023-05-01T10:10:45.084Z,94619.00
2023-05-01T10:11:45.151Z,94617.00
2023-05-01T10:12:45.485Z,94617.00
2023-05-01T10:13:45.241Z,94615.00
2023-05-01T10:14:45.301Z,94613.00
2023-05-01T10:15:45.362Z,94611.00
2023-05-01T10:16:45.440Z,94609.00
2023-05-01T10:17:45.516Z,94611.00
2023-05-01T10:18:45.515Z,94611.00
2023-05-01T10:19:45.551Z,94609.00
2023-05-01T10:20:45.595Z,94609.00
2023-05-01T10:21:45.697Z,94609.00
2023-05-01T10:22:45.694Z,94609.00
2023-05-01T10:23:45.782Z,94605.00
2023-05-01T10:24:45.829Z,94609.00
2023-05-01T10:25:45.914Z,94607.00
2023-05-01T10:26:45.907Z,94605.00
2023-05-01T10:27:46.026Z,94607.00
2023-05-01T10:28:46.033Z,94609.00
2023-05-01T10:29:46.126Z,94607.00
2023-05-01T10:30:46.168Z,94607.00
2023-05-01T10:31:46.349Z,94607.00
2023-05-01T10:32:46.327Z,94609.00
2023-05-01T10:33:46.321Z,94605.00
2023-05-01T10:34:46.404Z,94603.00
2023-05-01T10:35:46.456Z,94601.00
2023-05-01T10:36:46.609Z,94603.00
2023-05-01T10:37:46.590Z,94599.00
2023-05-01T10:38:46.692Z,94597.00
2023-05-01T10:39:46.731Z,94597.00
2023-05-01T10:40:46.777Z,94595.00
2023-05-01T10:41:46.816Z,94594.00
2023-05-01T10:42:46.857Z,94594.00
2023-05-01T10:43:46.911Z,94590.00
2023-05-01T10:44:47.021Z,94590.00
2023-05-01T10:45:47.048Z,94588.00
2023-05-01T10:46:47.133Z,94588.00
2023-05-01T10:47:47.174Z,94586.00
2023-05-01T10:48:47.241Z,94586.00
2023-05-01T10:49:47.294Z,94590.00
2023-05-01T10:50:47.340Z,94580.00
2023-05-01T10:51:47.370Z,94584.00
2023-05-01T10:52:47.456Z,94580.00
2023-05-01T10:53:47.505Z,94580.00
2023-05-01T10:54:47.571Z,94580.00
2023-05-01T10:55:47.605Z,94576.00
2023-05-01T10:56:47.663Z,94574.00
2023-05-01T10:57:47.734Z,94572.00
2023-05-01T10:58:47.781Z,94572.00
2023-05-01T10:59:47.850Z,94570.00
2023-05-01T11:00:47.881Z,94566.00
2023-05-01T11:01:48.148Z,94564.00
2023-05-01T11:02:48.061Z,94564.00
2023-05-01T11:03:48.102Z,94562.00
2023-05-01T11:04:48.161Z,94558.00
2023-05-01T11:05:48.249Z,94558.00
2023-05-01T11:06:48.240Z,94556.00
2023-05-01T11:07:48.279Z,94554.00
2023-05-01T11:08:48.343Z,94556.00
2023-05-01T11:09:48.392Z,94558.00
2023-05-01T11:10:48.462Z,94556.00
2023-05-01T11:11:48.538Z,94554.00
2023-05-01T11:12:48.588Z,94554.00
2023-05-01T11:13:48.636Z,94552.00
2023-05-01T11:14:48.684Z,94554.00
2023-05-01T11:15:48.780Z,94552.00
2023-05-01T11:16:48.918Z,94550.00
2023-05-01T11:17:48.876Z,94550.00
2023-05-01T11:18:48.934Z,94548.00
2023-05-01T11:19:48.981Z,94548.00
2023-05-01T11:20:49.005Z,94547.00
2023-05-01T11:21:49.101Z,94550.00
2023-05-01T11:22:49.128Z,94547.00
2023-05-01T11:23:49.162Z,94548.00
2023-05-01T11:24:49.251Z,94548.00
2023-05-01T11:25:49.329Z,94547.00
2023-05-01T11:26:49.355Z,94547.00
2023-05-01T11:27:49.481Z,94547.00
2023-05-01T11:28:49.463Z,94545.00
2023-05-01T11:29:49.527Z,94541.00
2023-05-01T11:30:49.571Z,94545.00
2023-05-01T11:31:49.663Z,94541.00
2023-05-01T11:32:49.697Z,94541.00
2023-05-01T11:33:49.691Z,94539.00
2023-05-01T11:34:49.764Z,94537.00
2023-05-01T11:35:49.803Z,94537.00
2023-05-01T11:36:49.886Z,94533.00
2023-05-01T11:37:49.929Z,94535.00
2023-05-01T11:38:49.981Z,94533.00
2023-05-01T11:39:50.015Z,94529.00
2023-05-01T11:40:50.050Z,94529.00
2023-05-01T11:41:50.161Z,94527.00
2023-05-01T11:42:50.183Z,94527.00
2023-05-01T11:43:50.204Z,94527.00
2023-05-01T11:44:50.243Z,94527.00
2023-05-01T11:45:50.350Z,94525.00